Canovanas, PR (00729)

3:33 AM AST on February 27, 2017 (GMT -0400)
Manejo de Emergencias Canovanas | | Change Station

Elev 56 ft 18.38 °N, 65.90 °W | Updated 48 seconds ago

Mostly Cloudy
Mostly Cloudy
72.5 °F
Feels Like 72.5 °F
N
0.0
Wind Variable Wind from SE
Gusts 1.0 mph

Today
High -- | Low -- °F
--% Chance of Precip.
Yesterday
High -- | Low -- °F
Precip. -- in
Pressure 30.04 in
Visibility 4.0 miles
Clouds Few 1500 ft
Scattered Clouds 2300 ft
Overcast 4000 ft
Dew Point 72 °F
Humidity 100%
Rainfall Not available.
Snow Depth Not available.
6:43 AM 6:29 PM
New Moon, 1% visible
METAR TJSJ 270656Z 10009KT 4SM -RA BR FEW015 SCT023 OVC040 24/23 A3004 RMK AO2 PK WND 08026/0644 WSHFT 0641 RAB44 SLP172 P0003 T02390228
Pressure 30.04 in
Visibility 4.0 miles
Clouds Few 1500 ft
Scattered Clouds 2300 ft
Overcast 4000 ft
Dew Point 72 °F
Humidity 100%
Rainfall Not available.
Snow Depth Not available.
6:43 AM 6:29 PM
New Moon, 1% visible
METAR TJSJ 270656Z 10009KT 4SM -RA BR FEW015 SCT023 OVC040 24/23 A3004 RMK AO2 PK WND 08026/0644 WSHFT 0641 RAB44 SLP172 P0003 T02390228

Get Your Daily Forecast Email!

Thanks for signing up!

Be on the lookout for a verification email in your inbox.

You'll start receiving the daily forecast at 8 AM.

×

10-Day Weather Forecast

Almanac

Astronomy

Feb. 27, 2017 Rise Set
Actual Time
Civil Twilight
Nautical Twilight
Astronomical Twilight
Moon
Length of Visible Light
Length of Day
Tomorrow will be .
, % of the Moon is Illuminated

Today's Extremes

State Highs State Lows

Community

WunderPhotos

Upload Photos

1,962,540 photos uploaded!

WunderBlog® & News

Nearby

Air Quality

  Air Quality AQ Index Pollutant
Not available.

Snow Depth

Station Depth Elevation

Earthquake Activity

City Distance Mag. Time & Date
Minimum magnitude displayed is 2.5.

Coastal Water Temperatures

Place Temperature

Stations

Nearby Weather Stations

Station Location Temp. Windchill Dew Point Humidity Wind Precip. Elev Updated Type
                   

Watches & Warnings

There are currently no watches in effect.